BAW117 EGKK-SKBO
Flight info
| Callsign | BAW117 |
|---|---|
| Flight time | N/A |
| Altitude | 32000 |
| Route | NOVMA L620 SAM N19 ADKIK DCT GAPLI/M082F320 DCT OMOKO DCT 47N020W 43N030W/M082F340 38N040W 31N050W/M082F360 22N060W/N0482F360 DCT GOUDA DCT SILVA/N0481F380 UM576 PJG UL325 ALCOT UG431 STB UW1 LFA UW34 CUC DCT ENVAM ENVAM5E |
| Aircraft | B77W/H-SDE1E2E3FGHIJ2J3J4J5M1RWXY/LB1D1 |
Departure
| Time | N/A |
|---|---|
| Airport | London Gatwick Airport (EGKK) |
Arrival
| Time | 2026-05-04 18:03 |
|---|---|
| Airport | El Dorado International Airport (SKBO) |
| Time | Latitude | Longitude | Altitude | Speed | Heading |
|---|---|---|---|---|---|
| 2026-05-04 15:30 | 16.04104 | -65.31927 | 32074 ft | 473 kts | 221° |
| 2026-05-04 15:30 | 15.96523 | -65.38455 | 32068 ft | 473 kts | 222° |
| 2026-05-04 15:31 | 15.88899 | -65.45012 | 32067 ft | 473 kts | 222° |
| 2026-05-04 15:32 | 15.76232 | -65.55893 | 32066 ft | 474 kts | 222° |
| 2026-05-04 15:34 | 15.64927 | -65.65588 | 32080 ft | 473 kts | 221° |
| 2026-05-04 15:34 | 15.57311 | -65.72112 | 32077 ft | 473 kts | 221° |
| 2026-05-04 15:35 | 15.49703 | -65.78621 | 32061 ft | 472 kts | 221° |
| 2026-05-04 15:36 | 15.42130 | -65.85096 | 32056 ft | 472 kts | 221° |
| 2026-05-04 15:36 | 15.37056 | -65.89430 | 32066 ft | 472 kts | 222° |
| 2026-05-04 15:37 | 15.31989 | -65.93755 | 32071 ft | 472 kts | 221° |
| 2026-05-04 15:37 | 15.26916 | -65.98083 | 32071 ft | 472 kts | 221° |
| 2026-05-04 15:38 | 15.21871 | -66.02384 | 32063 ft | 472 kts | 222° |
| 2026-05-04 15:38 | 15.16805 | -66.06699 | 32046 ft | 472 kts | 221° |
| 2026-05-04 15:39 | 15.11725 | -66.11025 | 32068 ft | 472 kts | 222° |
| 2026-05-04 15:40 | 15.04119 | -66.17496 | 32065 ft | 472 kts | 221° |
| 2026-05-04 15:40 | 14.99047 | -66.21807 | 32063 ft | 472 kts | 221° |
| 2026-05-04 15:41 | 14.93966 | -66.26124 | 32056 ft | 472 kts | 221° |
| 2026-05-04 15:41 | 14.88893 | -66.30431 | 32058 ft | 471 kts | 222° |
| 2026-05-04 15:42 | 14.83826 | -66.34730 | 32056 ft | 471 kts | 221° |
| 2026-05-04 15:42 | 14.78792 | -66.38999 | 32054 ft | 471 kts | 222° |
| 2026-05-04 15:43 | 14.73730 | -66.43290 | 32052 ft | 470 kts | 221° |
| 2026-05-04 15:43 | 14.68659 | -66.47585 | 32049 ft | 470 kts | 222° |
| 2026-05-04 15:44 | 14.63623 | -66.51849 | 32050 ft | 470 kts | 222° |
| 2026-05-04 15:44 | 14.58565 | -66.56129 | 32052 ft | 470 kts | 221° |
| 2026-05-04 15:45 | 14.53501 | -66.60414 | 32052 ft | 470 kts | 222° |
| 2026-05-04 15:45 | 14.48438 | -66.64696 | 32052 ft | 470 kts | 221° |
| 2026-05-04 15:46 | 14.43536 | -66.69139 | 32056 ft | 467 kts | 227° |
| 2026-05-04 15:46 | 14.39029 | -66.73868 | 32047 ft | 467 kts | 228° |
| 2026-05-04 15:47 | 14.34475 | -66.78663 | 32049 ft | 467 kts | 228° |
| 2026-05-04 15:47 | 14.29905 | -66.83445 | 32050 ft | 468 kts | 227° |
| 2026-05-04 15:48 | 14.25349 | -66.88194 | 32050 ft | 468 kts | 228° |
| 2026-05-04 15:48 | 14.18477 | -66.95347 | 32050 ft | 467 kts | 227° |
| 2026-05-04 15:49 | 14.13898 | -67.00110 | 32046 ft | 467 kts | 227° |
| 2026-05-04 15:49 | 14.09324 | -67.04865 | 32044 ft | 467 kts | 227° |
| 2026-05-04 15:50 | 14.04772 | -67.09596 | 32044 ft | 467 kts | 228° |
| 2026-05-04 15:50 | 14.00182 | -67.14362 | 32043 ft | 467 kts | 228° |
| 2026-05-04 15:51 | 13.95598 | -67.19121 | 32044 ft | 468 kts | 228° |
| 2026-05-04 15:51 | 13.91011 | -67.23879 | 32045 ft | 468 kts | 228° |
| 2026-05-04 15:52 | 13.86455 | -67.28602 | 32041 ft | 468 kts | 228° |
| 2026-05-04 15:52 | 13.81874 | -67.33350 | 32041 ft | 467 kts | 227° |
| 2026-05-04 15:53 | 13.77278 | -67.38110 | 32041 ft | 468 kts | 227° |
| 2026-05-04 15:53 | 13.72687 | -67.42865 | 32041 ft | 468 kts | 227° |
| 2026-05-04 15:54 | 13.68097 | -67.47616 | 32039 ft | 468 kts | 228° |
| 2026-05-04 15:54 | 13.63531 | -67.52342 | 32038 ft | 468 kts | 228° |
| 2026-05-04 15:55 | 13.58952 | -67.57113 | 32037 ft | 468 kts | 228° |
| 2026-05-04 15:55 | 13.54376 | -67.61889 | 32037 ft | 468 kts | 228° |
| 2026-05-04 15:56 | 13.51376 | -67.65017 | 32035 ft | 469 kts | 228° |
| 2026-05-04 15:56 | 13.46798 | -67.69787 | 32035 ft | 469 kts | 228° |
| 2026-05-04 15:57 | 13.41478 | -67.75327 | 32036 ft | 468 kts | 228° |
| 2026-05-04 15:57 | 13.36905 | -67.80088 | 32034 ft | 468 kts | 228° |
| 2026-05-04 15:58 | 13.33075 | -67.84075 | 32036 ft | 468 kts | 228° |
| 2026-05-04 15:58 | 13.28520 | -67.88796 | 32035 ft | 468 kts | 227° |
| 2026-05-04 15:59 | 13.23850 | -67.93459 | 32034 ft | 468 kts | 227° |
| 2026-05-04 15:59 | 13.19262 | -67.98189 | 32032 ft | 467 kts | 227° |
| 2026-05-04 16:00 | 13.14710 | -68.02963 | 32035 ft | 467 kts | 228° |
| 2026-05-04 16:00 | 13.10148 | -68.07730 | 32036 ft | 468 kts | 227° |
| 2026-05-04 16:01 | 13.05578 | -68.12486 | 32032 ft | 468 kts | 228° |
| 2026-05-04 16:01 | 13.01003 | -68.17241 | 32028 ft | 468 kts | 228° |
| 2026-05-04 16:02 | 12.96426 | -68.21997 | 32022 ft | 468 kts | 228° |
| 2026-05-04 16:03 | 12.89590 | -68.29098 | 32022 ft | 468 kts | 227° |
| 2026-05-04 16:03 | 12.85015 | -68.33850 | 32025 ft | 468 kts | 227° |
| 2026-05-04 16:04 | 12.80437 | -68.38595 | 32022 ft | 468 kts | 228° |
| 2026-05-04 16:04 | 12.73550 | -68.45701 | 32023 ft | 468 kts | 228° |
| 2026-05-04 16:05 | 12.68959 | -68.50439 | 32018 ft | 468 kts | 228° |
| 2026-05-04 16:06 | 12.62092 | -68.57529 | 32018 ft | 468 kts | 228° |
| 2026-05-04 16:07 | 12.52903 | -68.67010 | 32016 ft | 469 kts | 227° |
| 2026-05-04 16:07 | 12.45871 | -68.74263 | 32300 ft | 490 kts | 227° |
| 2026-05-04 16:08 | 12.43451 | -68.76759 | 32557 ft | 495 kts | 227° |
| 2026-05-04 16:08 | 12.36186 | -68.84234 | 33788 ft | 495 kts | 228° |
| 2026-05-04 16:09 | 12.31336 | -68.89222 | 34572 ft | 494 kts | 228° |
| 2026-05-04 16:09 | 12.26502 | -68.94198 | 35411 ft | 490 kts | 227° |
| 2026-05-04 16:10 | 12.21749 | -68.99085 | 36230 ft | 486 kts | 226° |
| 2026-05-04 16:11 | 12.14275 | -69.05995 | 37249 ft | 486 kts | 221° |
| 2026-05-04 16:11 | 12.11670 | -69.08212 | 37607 ft | 485 kts | 221° |
| 2026-05-04 16:12 | 12.03891 | -69.14895 | 37999 ft | 490 kts | 223° |
| 2026-05-04 16:12 | 11.96151 | -69.21613 | 37992 ft | 481 kts | 222° |
| 2026-05-04 16:13 | 11.86012 | -69.30403 | 37994 ft | 479 kts | 223° |
| 2026-05-04 16:14 | 11.75802 | -69.39276 | 37989 ft | 484 kts | 223° |
| 2026-05-04 16:16 | 11.62946 | -69.50442 | 37983 ft | 488 kts | 222° |
| 2026-05-04 16:17 | 11.50004 | -69.61671 | 37996 ft | 487 kts | 221° |
| 2026-05-04 16:18 | 11.39738 | -69.70593 | 37992 ft | 484 kts | 223° |
| 2026-05-04 16:19 | 11.27410 | -69.82138 | 37984 ft | 482 kts | 224° |
| 2026-05-04 16:20 | 11.15025 | -69.93680 | 37970 ft | 482 kts | 224° |
| 2026-05-04 16:22 | 11.02655 | -70.05194 | 37961 ft | 483 kts | 223° |
| 2026-05-04 16:23 | 10.87744 | -70.19074 | 37968 ft | 486 kts | 224° |
| 2026-05-04 16:25 | 10.72803 | -70.32980 | 37963 ft | 486 kts | 224° |
| 2026-05-04 16:26 | 10.55330 | -70.49242 | 37959 ft | 486 kts | 223° |
| 2026-05-04 16:28 | 10.42839 | -70.60783 | 37965 ft | 486 kts | 223° |
| 2026-05-04 16:29 | 10.25345 | -70.76953 | 37963 ft | 485 kts | 223° |
| 2026-05-04 16:31 | 10.12880 | -70.88494 | 37958 ft | 485 kts | 223° |
| 2026-05-04 16:32 | 9.97944 | -71.02262 | 37933 ft | 483 kts | 223° |
| 2026-05-04 16:33 | 9.88017 | -71.11417 | 37941 ft | 484 kts | 223° |
| 2026-05-04 16:34 | 9.80540 | -71.18310 | 37942 ft | 484 kts | 223° |
| 2026-05-04 16:35 | 9.65535 | -71.32102 | 37939 ft | 486 kts | 222° |
| 2026-05-04 16:36 | 9.58019 | -71.39016 | 37943 ft | 486 kts | 222° |
| 2026-05-04 16:37 | 9.50500 | -71.45928 | 37939 ft | 487 kts | 223° |
| 2026-05-04 16:38 | 9.40461 | -71.55150 | 37937 ft | 487 kts | 223° |
| 2026-05-04 16:39 | 9.27988 | -71.66596 | 37932 ft | 484 kts | 222° |
| 2026-05-04 16:40 | 9.18054 | -71.75707 | 37933 ft | 482 kts | 222° |
| 2026-05-04 16:41 | 9.05622 | -71.87105 | 37936 ft | 482 kts | 222° |
| 2026-05-04 16:43 | 8.92036 | -71.96820 | 37927 ft | 481 kts | 204° |
| 2026-05-04 16:43 | 8.82826 | -72.00846 | 37930 ft | 480 kts | 203° |
| 2026-05-04 16:45 | 8.65517 | -72.08545 | 37952 ft | 479 kts | 203° |
| 2026-05-04 16:46 | 8.50301 | -72.15344 | 37960 ft | 479 kts | 203° |
| 2026-05-04 16:47 | 8.38105 | -72.20789 | 37958 ft | 479 kts | 203° |
| 2026-05-04 16:48 | 8.25914 | -72.26297 | 37955 ft | 479 kts | 207° |
| 2026-05-04 16:49 | 8.15114 | -72.34104 | 37992 ft | 480 kts | 218° |
| 2026-05-04 16:50 | 8.04606 | -72.42468 | 38013 ft | 481 kts | 217° |
| 2026-05-04 16:51 | 7.96687 | -72.48718 | 38019 ft | 482 kts | 217° |
| 2026-05-04 16:51 | 7.91097 | -72.52320 | 38026 ft | 481 kts | 206° |
| 2026-05-04 16:52 | 7.84963 | -72.54986 | 38029 ft | 480 kts | 202° |
| 2026-05-04 16:53 | 7.75693 | -72.58776 | 38031 ft | 479 kts | 202° |
| 2026-05-04 16:54 | 7.63380 | -72.63912 | 38069 ft | 478 kts | 202° |
| 2026-05-04 16:55 | 7.45024 | -72.71601 | 38101 ft | 476 kts | 202° |
| 2026-05-04 16:56 | 7.29726 | -72.78000 | 38118 ft | 476 kts | 202° |
| 2026-05-04 16:57 | 7.20630 | -72.81801 | 38083 ft | 477 kts | 202° |
| 2026-05-04 16:58 | 7.08288 | -72.86959 | 38089 ft | 482 kts | 202° |
| 2026-05-04 17:00 | 6.89642 | -72.94744 | 38070 ft | 485 kts | 202° |
| 2026-05-04 17:01 | 6.74055 | -73.01246 | 38012 ft | 484 kts | 202° |
| 2026-05-04 17:02 | 6.61640 | -73.06423 | 37988 ft | 482 kts | 203° |
| 2026-05-04 17:03 | 6.52384 | -73.10279 | 37989 ft | 481 kts | 202° |
| 2026-05-04 17:03 | 6.43085 | -73.14153 | 37995 ft | 482 kts | 202° |
| 2026-05-04 17:04 | 6.30688 | -73.19315 | 37998 ft | 484 kts | 202° |
| 2026-05-04 17:05 | 6.18231 | -73.24499 | 38018 ft | 484 kts | 202° |
| 2026-05-04 17:06 | 6.10884 | -73.27555 | 38051 ft | 484 kts | 202° |
| 2026-05-04 17:09 | 6.05737 | -73.29696 | 38051 ft | 483 kts | 202° |
| 2026-05-04 17:10 | 5.90163 | -73.36172 | 37259 ft | 487 kts | 202° |
| 2026-05-04 17:11 | 5.87055 | -73.37464 | 36821 ft | 481 kts | 202° |
| 2026-05-04 17:11 | 5.84006 | -73.38731 | 36384 ft | 476 kts | 202° |
| 2026-05-04 17:11 | 5.77937 | -73.41253 | 35526 ft | 468 kts | 202° |
| 2026-05-04 17:12 | 5.74937 | -73.42499 | 35061 ft | 464 kts | 201° |
| 2026-05-04 17:12 | 5.71849 | -73.43783 | 34572 ft | 462 kts | 201° |
| 2026-05-04 17:19 | 5.67913 | -73.45419 | 33958 ft | 458 kts | 201° |
| 2026-05-04 17:19 | 5.62059 | -73.47854 | 32990 ft | 452 kts | 201° |
| 2026-05-04 17:20 | 5.56325 | -73.50235 | 32078 ft | 445 kts | 200° |
| 2026-05-04 17:20 | 5.51106 | -73.53329 | 31229 ft | 438 kts | 226° |
| 2026-05-04 17:20 | 5.49319 | -73.55793 | 30780 ft | 438 kts | 242° |
| 2026-05-04 17:21 | 5.47256 | -73.61513 | 29794 ft | 435 kts | 250° |
| 2026-05-04 17:21 | 5.45386 | -73.67255 | 28841 ft | 431 kts | 250° |
| 2026-05-04 17:22 | 5.44429 | -73.70103 | 28362 ft | 429 kts | 249° |
| 2026-05-04 17:22 | 5.43477 | -73.72894 | 27915 ft | 427 kts | 249° |
| 2026-05-04 17:23 | 5.40589 | -73.81306 | 26573 ft | 423 kts | 249° |
| 2026-05-04 17:23 | 5.39634 | -73.84092 | 26118 ft | 422 kts | 249° |
| 2026-05-04 17:23 | 5.37727 | -73.89670 | 25188 ft | 421 kts | 249° |
| 2026-05-04 17:24 | 5.36778 | -73.92449 | 24745 ft | 421 kts | 250° |
| 2026-05-04 17:24 | 5.33918 | -74.00817 | 23225 ft | 425 kts | 250° |
| 2026-05-04 17:25 | 5.32962 | -74.03603 | 22759 ft | 416 kts | 250° |
| 2026-05-04 17:25 | 5.32408 | -74.05216 | 22448 ft | 406 kts | 250° |
| 2026-05-04 17:29 | 5.31961 | -74.06518 | 22267 ft | 404 kts | 250° |
| 2026-05-04 17:30 | 5.29227 | -74.14494 | 20903 ft | 401 kts | 250° |
| 2026-05-04 17:31 | 5.27413 | -74.19795 | 20037 ft | 400 kts | 250° |
| 2026-05-04 17:31 | 5.24710 | -74.27691 | 18640 ft | 400 kts | 250° |
| 2026-05-04 17:32 | 5.23288 | -74.32943 | 18096 ft | 373 kts | 270° |
| 2026-05-04 17:33 | 5.23287 | -74.33115 | 18077 ft | 371 kts | 271° |
| 2026-05-04 17:37 | 5.23297 | -74.33437 | 18051 ft | 367 kts | 274° |
| 2026-05-04 17:37 | 5.23572 | -74.35929 | 17834 ft | 353 kts | 276° |
| 2026-05-04 17:37 | 5.23785 | -74.38043 | 17805 ft | 350 kts | 275° |
| 2026-05-04 17:44 | 5.23840 | -74.38666 | 17803 ft | 349 kts | 275° |
| 2026-05-04 17:48 | 5.23899 | -74.39360 | 17797 ft | 349 kts | 274° |
| 2026-05-04 17:49 | 5.24094 | -74.41774 | 17804 ft | 346 kts | 274° |
| 2026-05-04 17:49 | 5.24282 | -74.44182 | 17802 ft | 345 kts | 274° |
| 2026-05-04 17:49 | 5.24291 | -74.46592 | 17794 ft | 348 kts | 259° |
| 2026-05-04 17:49 | 5.23560 | -74.48905 | 17819 ft | 350 kts | 246° |
| 2026-05-04 17:50 | 5.22633 | -74.51178 | 17790 ft | 353 kts | 246° |
| 2026-05-04 17:50 | 5.21726 | -74.53482 | 17775 ft | 356 kts | 247° |
| 2026-05-04 17:50 | 5.20843 | -74.55802 | 17739 ft | 355 kts | 248° |
| 2026-05-04 17:50 | 5.19974 | -74.58112 | 17723 ft | 351 kts | 247° |
| 2026-05-04 17:51 | 5.18881 | -74.60261 | 17707 ft | 344 kts | 229° |
| 2026-05-04 17:51 | 5.17227 | -74.61922 | 17712 ft | 341 kts | 219° |
| 2026-05-04 17:51 | 5.15438 | -74.63531 | 17695 ft | 347 kts | 219° |
| 2026-05-04 17:51 | 5.13647 | -74.65177 | 17707 ft | 349 kts | 220° |
| 2026-05-04 17:52 | 5.11874 | -74.66840 | 17693 ft | 348 kts | 220° |
| 2026-05-04 17:52 | 5.10120 | -74.68500 | 17683 ft | 345 kts | 221° |
| 2026-05-04 17:52 | 5.08354 | -74.70107 | 17677 ft | 341 kts | 214° |
| 2026-05-04 17:52 | 5.06270 | -74.71160 | 17677 ft | 331 kts | 193° |
| 2026-05-04 17:53 | 5.04047 | -74.71786 | 17701 ft | 336 kts | 193° |
| 2026-05-04 17:53 | 5.01786 | -74.72455 | 17715 ft | 341 kts | 194° |
| 2026-05-04 17:53 | 4.99486 | -74.72882 | 17734 ft | 334 kts | 175° |
| 2026-05-04 17:53 | 4.97243 | -74.72396 | 17752 ft | 329 kts | 152° |
| 2026-05-04 17:54 | 4.95414 | -74.71123 | 17755 ft | 313 kts | 130° |
| 2026-05-04 17:54 | 4.94195 | -74.69402 | 17778 ft | 298 kts | 115° |
| 2026-05-04 17:54 | 4.93497 | -74.67489 | 17800 ft | 292 kts | 98° |
| 2026-05-04 17:54 | 4.93288 | -74.65471 | 17814 ft | 291 kts | 94° |
| 2026-05-04 17:55 | 4.93148 | -74.63442 | 17819 ft | 292 kts | 94° |
| 2026-05-04 17:55 | 4.92998 | -74.61404 | 17820 ft | 294 kts | 94° |
| 2026-05-04 17:55 | 4.92832 | -74.59363 | 17818 ft | 294 kts | 94° |
| 2026-05-04 17:55 | 4.92660 | -74.57344 | 17811 ft | 293 kts | 94° |
| 2026-05-04 17:56 | 4.92484 | -74.55314 | 17821 ft | 293 kts | 94° |
| 2026-05-04 17:56 | 4.92306 | -74.53276 | 17818 ft | 292 kts | 94° |
| 2026-05-04 17:56 | 4.92129 | -74.51244 | 17801 ft | 293 kts | 94° |
| 2026-05-04 17:56 | 4.91949 | -74.49183 | 17484 ft | 299 kts | 95° |
| 2026-05-04 17:57 | 4.91766 | -74.47081 | 16896 ft | 306 kts | 95° |
| 2026-05-04 17:57 | 4.91578 | -74.44937 | 16379 ft | 310 kts | 95° |
| 2026-05-04 17:57 | 4.91382 | -74.42799 | 15834 ft | 312 kts | 98° |
| 2026-05-04 17:57 | 4.90710 | -74.40742 | 15346 ft | 313 kts | 120° |
| 2026-05-04 17:58 | 4.89469 | -74.38962 | 14997 ft | 312 kts | 125° |
| 2026-05-04 17:58 | 4.88201 | -74.37230 | 14362 ft | 303 kts | 125° |
| 2026-05-04 17:58 | 4.86977 | -74.35539 | 13737 ft | 295 kts | 124° |
| 2026-05-04 17:58 | 4.85796 | -74.33902 | 13151 ft | 285 kts | 124° |
| 2026-05-04 17:59 | 4.84675 | -74.32330 | 12646 ft | 272 kts | 123° |
| 2026-05-04 17:59 | 4.83626 | -74.30727 | 11798 ft | 278 kts | 120° |
| 2026-05-04 17:59 | 4.81578 | -74.27709 | 11354 ft | 234 kts | 136° |
| 2026-05-04 18:00 | 4.80445 | -74.26643 | 11578 ft | 223 kts | 131° |
| 2026-05-04 18:00 | 4.79417 | -74.25523 | 11837 ft | 207 kts | 129° |
| 2026-05-04 18:00 | 4.78547 | -74.24511 | 12010 ft | 182 kts | 127° |
| 2026-05-04 18:00 | 4.77705 | -74.23467 | 12085 ft | 205 kts | 126° |
| 2026-05-04 18:01 | 4.76814 | -74.22265 | 11551 ft | 230 kts | 122° |
| 2026-05-04 18:01 | 4.75899 | -74.20877 | 10851 ft | 239 kts | 124° |
| 2026-05-04 18:01 | 4.74941 | -74.19580 | 10319 ft | 224 kts | 131° |
| 2026-05-04 18:02 | 4.72937 | -74.17329 | 9180 ft | 208 kts | 127° |
| 2026-05-04 18:02 | 4.72087 | -74.16200 | 8705 ft | 199 kts | 126° |
| 2026-05-04 18:02 | 4.71307 | -74.15170 | 8397 ft | 182 kts | 127° |
| 2026-05-04 18:02 | 4.70948 | -74.14688 | 8372 ft | 184 kts | 128° |
| 2026-05-04 18:03 | 4.70526 | -74.14130 | 8372 ft | 188 kts | 124° |
| 2026-05-04 18:03 | 4.69989 | -74.13424 | 8372 ft | 49 kts | 126° |
| 2026-05-04 18:03 | 4.69834 | -74.13315 | 8372 ft | 11 kts | 166° |
| 2026-05-04 18:03 | 4.69805 | -74.13309 | 8372 ft | 0 kts | 171° |
| 2026-05-04 18:05 | 4.69791 | -74.13307 | 8372 ft | 7 kts | 171° |
| 2026-05-04 18:05 | 4.69746 | -74.13300 | 8371 ft | 6 kts | 171° |
| 2026-05-04 18:05 | 4.69708 | -74.13299 | 8371 ft | 6 kts | 192° |
| 2026-05-04 18:05 | 4.69688 | -74.13327 | 8371 ft | 6 kts | 268° |
| 2026-05-04 18:06 | 4.69704 | -74.13371 | 8371 ft | 0 kts | 305° |
| 2026-05-04 18:06 | 4.69714 | -74.13385 | 8371 ft | 5 kts | 305° |
| 2026-05-04 18:06 | 4.69736 | -74.13415 | 8371 ft | 5 kts | 309° |
| 2026-05-04 18:07 | 4.69760 | -74.13445 | 8371 ft | 5 kts | 307° |
| 2026-05-04 18:07 | 4.69782 | -74.13475 | 8372 ft | 5 kts | 307° |
| 2026-05-04 18:07 | 4.69805 | -74.13506 | 8371 ft | 5 kts | 307° |
| 2026-05-04 18:07 | 4.69827 | -74.13537 | 8372 ft | 5 kts | 298° |
| 2026-05-04 18:08 | 4.69826 | -74.13572 | 8371 ft | 5 kts | 249° |
| 2026-05-04 18:08 | 4.69822 | -74.13609 | 8371 ft | 6 kts | 277° |
| 2026-05-04 18:08 | 4.69829 | -74.13636 | 8371 ft | 0 kts | 289° |
| 2026-05-04 18:08 | 4.69830 | -74.13639 | 8371 ft | 2 kts | 290° |
| 2026-05-04 18:09 | 4.69855 | -74.13697 | 8371 ft | 9 kts | 276° |
| 2026-05-04 18:09 | 4.69862 | -74.13822 | 8371 ft | 8 kts | 310° |
| 2026-05-04 18:10 | 4.69889 | -74.13855 | 8371 ft | 5 kts | 309° |
| 2026-05-04 18:10 | 4.69909 | -74.13880 | 8371 ft | 3 kts | 309° |
| 2026-05-04 18:10 | 4.69917 | -74.13891 | 8371 ft | 2 kts | 308° |
| 2026-05-04 18:10 | 4.69925 | -74.13901 | 8371 ft | 2 kts | 307° |
| 2026-05-04 18:11 | 4.69934 | -74.13912 | 8371 ft | 4 kts | 307° |
| 2026-05-04 18:11 | 4.69957 | -74.13943 | 8371 ft | 6 kts | 307° |
| 2026-05-04 18:11 | 4.69983 | -74.13977 | 8371 ft | 6 kts | 307° |
| 2026-05-04 18:11 | 4.70008 | -74.14010 | 8371 ft | 6 kts | 307° |
| 2026-05-04 18:12 | 4.70029 | -74.14038 | 8371 ft | 3 kts | 307° |
| 2026-05-04 18:12 | 4.70039 | -74.14056 | 8371 ft | 3 kts | 291° |
| 2026-05-04 18:12 | 4.70026 | -74.14087 | 8371 ft | 2 kts | 227° |
| 2026-05-04 18:13 | 4.70025 | -74.14087 | 8371 ft | 1 kts | 224° |
| 2026-05-04 18:13 | 4.70009 | -74.14100 | 8371 ft | 3 kts | 220° |
| 2026-05-04 18:13 | 4.70007 | -74.14101 | 8371 ft | 0 kts | 218° |
| 2026-05-04 18:14 | 4.70006 | -74.14102 | 8371 ft | 0 kts | 219° |
| 2026-05-04 18:14 | 4.70004 | -74.14104 | 8371 ft | 0 kts | 219° |
| 2026-05-04 18:15 | 4.69994 | -74.14112 | 8371 ft | 1 kts | 219° |
| 2026-05-04 18:15 | 4.69985 | -74.14119 | 8371 ft | 0 kts | 217° |